createdAt,value
2023-10-15T04:15:45.333Z,21.27
2023-10-15T04:16:45.340Z,21.19
2023-10-15T04:17:45.413Z,21.23
2023-10-15T04:18:45.283Z,21.18
2023-10-15T04:19:45.400Z,21.31
2023-10-15T04:20:45.257Z,21.19
2023-10-15T04:21:45.243Z,21.30
2023-10-15T04:22:45.340Z,21.22
2023-10-15T04:23:45.262Z,21.23
2023-10-15T04:24:45.238Z,21.23
2023-10-15T04:25:45.250Z,21.19
2023-10-15T04:26:45.224Z,21.27
2023-10-15T04:27:45.233Z,21.28
2023-10-15T04:28:45.239Z,21.28
2023-10-15T04:29:45.199Z,21.33
2023-10-15T04:30:45.200Z,21.31
2023-10-15T04:31:45.272Z,21.31
2023-10-15T04:32:45.230Z,21.37
2023-10-15T04:33:45.209Z,21.33
2023-10-15T04:34:45.194Z,21.38
2023-10-15T04:35:45.188Z,21.40
2023-10-15T04:36:45.173Z,21.38
2023-10-15T04:37:45.199Z,21.43
2023-10-15T04:38:45.182Z,21.38
2023-10-15T04:39:52.951Z,21.43
2023-10-15T04:40:45.167Z,21.53
2023-10-15T04:41:45.165Z,21.51
2023-10-15T04:42:45.154Z,21.52
2023-10-15T04:43:45.187Z,21.52
2023-10-15T04:44:45.143Z,21.49
2023-10-15T04:45:45.245Z,21.56
2023-10-15T04:46:45.159Z,21.52
2023-10-15T04:47:45.191Z,21.53
2023-10-15T04:48:45.133Z,21.49
2023-10-15T04:49:45.144Z,21.55
2023-10-15T04:51:45.126Z,21.59
2023-10-15T04:52:45.186Z,21.62
2023-10-15T04:53:45.129Z,21.61
2023-10-15T04:54:45.122Z,21.71
2023-10-15T04:55:45.191Z,21.66
2023-10-15T04:56:45.107Z,21.67
2023-10-15T04:57:45.100Z,21.62
2023-10-15T04:58:45.119Z,21.71
2023-10-15T04:59:45.094Z,21.73
2023-10-15T05:00:45.249Z,21.77
2023-10-15T05:01:45.182Z,21.68
2023-10-15T05:02:45.117Z,21.74
2023-10-15T05:03:45.179Z,21.77
2023-10-15T05:04:45.098Z,21.76
2023-10-15T05:05:45.091Z,21.74
2023-10-15T05:06:45.089Z,21.73
2023-10-15T05:07:45.080Z,21.78
2023-10-15T05:08:45.093Z,21.78
2023-10-15T05:09:45.057Z,21.82
2023-10-15T05:10:45.161Z,21.78
2023-10-15T05:11:45.063Z,21.82
2023-10-15T05:12:45.069Z,21.83
2023-10-15T05:13:45.092Z,21.80
2023-10-15T05:14:45.043Z,21.82
2023-10-15T05:15:45.135Z,21.85
2023-10-15T05:16:45.049Z,21.85
2023-10-15T05:17:45.138Z,21.85
2023-10-15T05:18:45.034Z,21.80
2023-10-15T05:19:45.101Z,21.83
2023-10-15T05:20:45.024Z,21.89
2023-10-15T05:21:45.032Z,21.92
2023-10-15T05:22:45.071Z,21.90
2023-10-15T05:23:45.012Z,21.77
2023-10-15T05:24:45.011Z,21.90
2023-10-15T05:25:45.059Z,21.90
2023-10-15T05:26:45.026Z,21.89
2023-10-15T05:27:45.005Z,21.90
2023-10-15T05:28:45.042Z,21.92
2023-10-15T05:29:45.012Z,21.92
2023-10-15T05:30:44.996Z,21.90
2023-10-15T05:31:45.062Z,21.94
2023-10-15T05:32:45.013Z,21.96
2023-10-15T05:33:44.980Z,21.92
2023-10-15T05:34:44.992Z,21.93
2023-10-15T05:35:44.988Z,21.96
2023-10-15T05:36:44.976Z,21.96
2023-10-15T05:37:45.002Z,21.89
2023-10-15T05:38:44.981Z,21.92
2023-10-15T05:39:44.962Z,21.94
2023-10-15T05:40:44.964Z,21.93
2023-10-15T05:41:44.949Z,21.96
2023-10-15T05:42:44.950Z,21.94
2023-10-15T05:43:44.998Z,21.89
2023-10-15T05:44:44.945Z,21.93
2023-10-15T05:45:44.993Z,21.96
2023-10-15T05:46:44.987Z,21.96
2023-10-15T05:47:45.063Z,21.96
2023-10-15T05:48:44.930Z,21.93
2023-10-15T05:49:44.924Z,21.94
2023-10-15T05:50:44.929Z,21.93
2023-10-15T05:51:44.957Z,22.05
2023-10-15T05:52:44.936Z,21.99
2023-10-15T05:53:44.919Z,22.00
2023-10-15T05:54:44.901Z,22.00
2023-10-15T05:55:44.989Z,21.97
2023-10-15T05:56:44.897Z,21.93
2023-10-15T05:57:44.922Z,22.00
2023-10-15T05:58:44.965Z,21.96
2023-10-15T05:59:44.886Z,21.96
2023-10-15T06:00:44.951Z,21.96
2023-10-15T06:01:44.955Z,21.96
2023-10-15T06:02:44.914Z,21.97
2023-10-15T06:03:44.914Z,22.04
2023-10-15T06:04:44.898Z,22.02
2023-10-15T06:05:44.920Z,22.05
2023-10-15T06:06:44.860Z,21.97
2023-10-15T06:07:44.960Z,22.07
2023-10-15T06:08:44.897Z,21.97
2023-10-15T06:09:44.862Z,22.04
2023-10-15T06:10:44.852Z,22.07
2023-10-15T06:11:44.841Z,22.04
2023-10-15T06:12:44.898Z,22.04
2023-10-15T06:13:44.895Z,22.08
2023-10-15T06:14:44.838Z,22.04
2023-10-15T06:15:44.865Z,22.07
2023-10-15T06:16:44.877Z,22.04
2023-10-15T06:17:44.917Z,22.04
2023-10-15T06:18:44.832Z,22.04
2023-10-15T06:19:44.876Z,22.05
2023-10-15T06:20:44.856Z,22.09
2023-10-15T06:21:44.816Z,22.07
2023-10-15T06:22:44.881Z,22.05
2023-10-15T06:23:46.084Z,22.11
2023-10-15T06:24:44.803Z,22.08
2023-10-15T06:25:44.908Z,22.08
2023-10-15T06:26:44.788Z,22.09
2023-10-15T06:27:44.811Z,22.09
2023-10-15T06:28:44.852Z,22.11
2023-10-15T06:29:44.783Z,22.14
2023-10-15T06:30:44.851Z,22.15
2023-10-15T06:31:44.831Z,22.09
2023-10-15T06:32:44.861Z,22.12
2023-10-15T06:33:44.803Z,22.11
2023-10-15T06:34:44.764Z,22.08
2023-10-15T06:35:44.768Z,22.12
2023-10-15T06:36:44.760Z,22.08
2023-10-15T06:37:44.787Z,22.18
2023-10-15T06:38:44.778Z,22.09
2023-10-15T06:39:44.763Z,22.08
2023-10-15T06:40:44.746Z,22.16
2023-10-15T06:41:44.757Z,22.14
2023-10-15T06:42:44.743Z,22.11
2023-10-15T06:43:44.828Z,22.07
2023-10-15T06:44:44.755Z,22.18
2023-10-15T06:45:44.730Z,22.24
2023-10-15T06:46:44.774Z,22.18
2023-10-15T06:47:44.780Z,22.16
2023-10-15T06:48:44.737Z,22.15
2023-10-15T06:49:44.744Z,22.12
2023-10-15T06:50:44.711Z,22.24
2023-10-15T06:51:44.726Z,22.20
2023-10-15T06:52:44.727Z,22.23
2023-10-15T06:53:44.706Z,22.27
2023-10-15T06:54:44.743Z,22.27
2023-10-15T06:55:44.750Z,22.29
2023-10-15T06:56:44.716Z,22.29
2023-10-15T06:57:44.684Z,22.23
2023-10-15T06:58:44.717Z,22.30
2023-10-15T06:59:44.705Z,22.29
2023-10-15T07:00:44.758Z,22.31
2023-10-15T07:01:44.700Z,22.26
2023-10-15T07:02:44.731Z,22.27
2023-10-15T07:03:44.744Z,22.27
2023-10-15T07:04:44.696Z,22.27
2023-10-15T07:05:44.683Z,22.29
2023-10-15T07:06:44.665Z,22.29
2023-10-15T07:07:44.690Z,22.38
2023-10-15T07:08:44.660Z,22.34
2023-10-15T07:09:44.658Z,22.31
2023-10-15T07:10:44.744Z,22.38
2023-10-15T07:11:44.662Z,22.34
2023-10-15T07:12:44.639Z,22.39
2023-10-15T07:13:45.886Z,22.38
2023-10-15T07:14:44.646Z,22.36
2023-10-15T07:15:44.678Z,22.41
2023-10-15T07:16:44.694Z,22.41
2023-10-15T07:17:44.777Z,22.42
2023-10-15T07:18:44.685Z,22.36
2023-10-15T07:19:44.629Z,22.41
2023-10-15T07:20:44.658Z,22.42
2023-10-15T07:21:44.618Z,22.42
2023-10-15T07:22:44.688Z,22.42
2023-10-15T07:23:44.619Z,22.46
2023-10-15T07:24:44.635Z,22.48
2023-10-15T07:25:44.732Z,22.46
2023-10-15T07:26:44.610Z,22.51
2023-10-15T07:27:44.619Z,22.46
2023-10-15T07:28:44.632Z,22.55
2023-10-15T07:29:44.631Z,22.64
2023-10-15T07:30:44.656Z,22.66
2023-10-15T07:31:44.620Z,22.60
2023-10-15T07:32:44.602Z,22.60
2023-10-15T07:33:44.581Z,22.64
2023-10-15T07:34:44.608Z,22.75
2023-10-15T07:35:44.583Z,22.71
2023-10-15T07:36:44.586Z,22.70
2023-10-15T07:37:44.595Z,22.73
2023-10-15T07:38:44.582Z,22.75
2023-10-15T07:39:44.562Z,22.75
2023-10-15T07:40:44.673Z,22.78
2023-10-15T07:41:44.566Z,22.67
2023-10-15T07:42:44.567Z,22.85
2023-10-15T07:43:44.598Z,22.84
2023-10-15T07:44:44.548Z,22.82
2023-10-15T07:45:44.567Z,22.79
2023-10-15T07:46:44.694Z,22.85
2023-10-15T07:47:44.667Z,22.81
2023-10-15T07:48:44.557Z,22.85
2023-10-15T07:49:44.577Z,22.79
2023-10-15T07:50:44.534Z,22.85
2023-10-15T07:51:44.527Z,22.88
2023-10-15T07:52:44.578Z,22.84
2023-10-15T07:53:44.544Z,22.89
2023-10-15T07:54:44.543Z,22.86
2023-10-15T07:55:44.526Z,22.86
2023-10-15T07:56:44.526Z,22.94
2023-10-15T07:57:44.526Z,22.91
2023-10-15T07:58:44.580Z,22.89
2023-10-15T07:59:44.530Z,22.91
2023-10-15T08:00:45.033Z,22.94
2023-10-15T08:01:44.628Z,22.94
2023-10-15T08:02:44.686Z,22.88
2023-10-15T08:03:44.693Z,22.94
2023-10-15T08:04:44.637Z,23.00
2023-10-15T08:05:44.677Z,22.96
2023-10-15T08:06:44.629Z,22.96
2023-10-15T08:07:44.596Z,22.99
2023-10-15T08:08:44.516Z,22.99
2023-10-15T08:09:44.486Z,23.00
2023-10-15T08:10:44.512Z,23.03
2023-10-15T08:11:44.472Z,23.00
2023-10-15T08:12:44.472Z,23.07
2023-10-15T08:13:44.544Z,23.04
2023-10-15T08:14:44.487Z,23.01
2023-10-15T08:15:44.497Z,23.12
2023-10-15T08:16:44.568Z,23.09
2023-10-15T08:17:44.523Z,23.09
2023-10-15T08:18:44.473Z,23.09
2023-10-15T08:19:44.472Z,23.07
2023-10-15T08:20:44.460Z,23.07
2023-10-15T08:21:44.465Z,23.16
2023-10-15T08:22:44.491Z,23.14
2023-10-15T08:23:44.489Z,23.15
2023-10-15T08:24:44.466Z,23.22
2023-10-15T08:25:44.458Z,23.19
2023-10-15T08:26:44.794Z,23.25
2023-10-15T08:27:44.460Z,23.25
2023-10-15T08:28:44.454Z,23.26
2023-10-15T08:29:44.447Z,23.32
2023-10-15T08:30:44.459Z,23.29
2023-10-15T08:31:44.461Z,23.38
2023-10-15T08:32:44.472Z,23.37
2023-10-15T08:33:48.371Z,23.41
2023-10-15T08:34:44.450Z,23.38
2023-10-15T08:35:44.420Z,23.37
2023-10-15T08:36:44.414Z,23.35
2023-10-15T08:37:44.464Z,23.42
2023-10-15T08:38:44.408Z,23.29
2023-10-15T08:39:44.408Z,23.42
2023-10-15T08:40:44.448Z,23.44
2023-10-15T08:41:44.398Z,23.41
2023-10-15T08:42:44.402Z,23.41
2023-10-15T08:43:44.448Z,23.47
2023-10-15T08:44:44.429Z,23.48
2023-10-15T08:45:44.417Z,23.45
2023-10-15T08:46:44.477Z,23.44
2023-10-15T08:47:44.454Z,23.45
2023-10-15T08:48:44.393Z,23.45
2023-10-15T08:51:17.013Z,23.60
2023-10-15T08:52:17.007Z,23.56
2023-10-15T08:53:17.084Z,23.53
2023-10-15T08:54:16.999Z,23.53
2023-10-15T08:56:17.054Z,23.59
2023-10-15T08:57:17.008Z,23.48
2023-10-15T08:58:18.564Z,23.48
2023-10-15T08:59:16.987Z,23.52
2023-10-15T09:00:30.076Z,23.60
2023-10-15T09:01:17.036Z,23.50
2023-10-15T09:02:17.082Z,23.57
2023-10-15T09:03:17.028Z,23.47
2023-10-15T09:04:17.026Z,23.56
2023-10-15T09:05:17.032Z,23.50
2023-10-15T09:06:17.001Z,23.50
2023-10-15T09:07:16.965Z,23.48
2023-10-15T09:08:16.985Z,23.48
2023-10-15T09:09:16.959Z,23.47
2023-10-15T09:10:17.000Z,23.44
2023-10-15T09:11:17.103Z,23.45
2023-10-15T09:12:16.952Z,23.45
2023-10-15T09:13:18.080Z,23.42
2023-10-15T09:14:16.971Z,23.50
2023-10-15T09:15:16.974Z,23.48
2023-10-15T09:16:16.998Z,23.44
2023-10-15T09:17:16.982Z,23.50
2023-10-15T09:18:17.464Z,23.47
2023-10-15T09:19:16.955Z,23.48
2023-10-15T09:20:16.974Z,23.50
2023-10-15T09:21:16.958Z,23.45
2023-10-15T09:22:16.966Z,23.48
2023-10-15T09:23:17.014Z,23.47
2023-10-15T09:24:16.932Z,23.48
2023-10-15T09:25:16.966Z,23.59
2023-10-15T09:26:16.972Z,23.53
2023-10-15T09:27:16.939Z,23.52
2023-10-15T09:28:16.907Z,23.53
2023-10-15T09:29:16.938Z,23.55
2023-10-15T09:30:16.942Z,23.59
2023-10-15T09:31:16.926Z,23.66
2023-10-15T09:32:17.002Z,23.63
2023-10-15T09:33:16.945Z,23.70
2023-10-15T09:34:16.905Z,23.67
2023-10-15T09:35:16.956Z,23.72
2023-10-15T09:36:18.430Z,23.72
2023-10-15T09:37:16.924Z,23.70
2023-10-15T09:38:16.982Z,23.78
2023-10-15T09:39:16.899Z,23.79
2023-10-15T09:40:16.915Z,23.84
2023-10-15T09:41:16.975Z,23.77
2023-10-15T09:42:16.915Z,23.77
2023-10-15T09:43:16.897Z,23.90
2023-10-15T09:44:16.977Z,23.92
2023-10-15T09:45:16.921Z,23.97
2023-10-15T09:46:16.927Z,23.94
2023-10-15T09:47:16.935Z,23.93
2023-10-15T09:48:16.881Z,23.94
2023-10-15T09:49:16.921Z,24.00
2023-10-15T09:50:16.907Z,24.04
2023-10-15T09:51:16.892Z,24.00
2023-10-15T09:52:16.905Z,24.07
2023-10-15T09:53:16.938Z,24.14
2023-10-15T09:54:16.886Z,24.11
2023-10-15T09:55:16.876Z,24.14
2023-10-15T09:56:16.912Z,24.19
2023-10-15T09:57:16.891Z,24.09
2023-10-15T09:58:16.896Z,24.17
2023-10-15T09:59:17.036Z,24.17
2023-10-15T10:00:16.924Z,24.14
2023-10-15T10:01:16.914Z,24.17
2023-10-15T10:02:16.940Z,24.18
2023-10-15T10:03:16.953Z,24.18
2023-10-15T10:04:16.901Z,24.26
2023-10-15T10:05:16.912Z,24.22
2023-10-15T10:06:16.901Z,24.26
2023-10-15T10:07:16.954Z,24.30
2023-10-15T10:08:16.914Z,24.34
2023-10-15T10:09:16.849Z,24.29
2023-10-15T10:10:16.898Z,24.33
2023-10-15T10:11:16.879Z,24.45
2023-10-15T10:12:16.852Z,24.37
2023-10-15T10:13:16.851Z,24.49
2023-10-15T10:14:16.884Z,24.44
2023-10-15T10:15:16.885Z,24.46
2023-10-15T10:16:16.883Z,24.49
2023-10-15T10:17:17.047Z,24.49
2023-10-15T10:18:17.023Z,24.54
2023-10-15T10:30:11.545Z,25.07
2023-10-15T10:31:11.553Z,25.05
2023-10-15T10:32:11.538Z,25.14
2023-10-15T10:33:11.509Z,25.11
2023-10-15T10:34:11.492Z,25.22
2023-10-15T10:35:11.498Z,25.23
2023-10-15T10:36:11.496Z,25.27
2023-10-15T10:37:11.485Z,25.27
2023-10-15T10:38:11.515Z,25.30
2023-10-15T10:39:11.485Z,25.30
2023-10-15T10:40:11.494Z,25.34
2023-10-15T10:41:24.815Z,25.32
2023-10-15T10:42:11.495Z,25.33
2023-10-15T10:43:11.480Z,25.32
2023-10-15T10:44:26.101Z,25.38
2023-10-15T10:45:11.517Z,25.33
2023-10-15T10:46:11.517Z,25.32
2023-10-15T10:47:11.490Z,25.37
2023-10-15T10:48:11.521Z,25.32
2023-10-15T10:49:11.488Z,25.30
2023-10-15T10:50:11.577Z,25.32
2023-10-15T10:51:11.473Z,25.34
2023-10-15T10:52:11.476Z,25.30
2023-10-15T10:53:11.502Z,25.32
2023-10-15T10:54:11.481Z,25.30
2023-10-15T10:55:11.484Z,25.37
2023-10-15T10:56:11.557Z,25.32
2023-10-15T10:57:11.507Z,25.34
2023-10-15T10:58:11.482Z,25.32
2023-10-15T10:59:11.616Z,25.33
2023-10-15T11:00:11.463Z,25.42
2023-10-15T11:01:11.516Z,25.37
2023-10-15T11:02:11.572Z,25.44
2023-10-15T11:03:11.508Z,25.39
2023-10-15T11:04:11.467Z,25.41
2023-10-15T11:05:11.517Z,25.48
2023-10-15T11:06:11.492Z,25.52
2023-10-15T11:07:11.476Z,25.49
2023-10-15T11:08:11.543Z,25.64
2023-10-15T11:09:11.475Z,25.59
2023-10-15T11:10:11.485Z,25.67
2023-10-15T11:11:11.509Z,25.66
2023-10-15T11:12:11.667Z,25.54
2023-10-15T11:13:11.468Z,25.64
2023-10-15T11:14:11.502Z,25.66
2023-10-15T11:15:11.469Z,25.59
2023-10-15T11:16:12.504Z,25.63
2023-10-15T11:17:11.599Z,25.69
2023-10-15T11:18:11.572Z,25.66
2023-10-15T11:19:11.462Z,25.74
2023-10-15T11:20:11.589Z,25.71
2023-10-15T11:21:11.478Z,25.66
2023-10-15T11:22:11.493Z,25.71
2023-10-15T11:23:11.502Z,25.60
2023-10-15T11:24:11.469Z,25.59
2023-10-15T11:25:11.489Z,25.59
2023-10-15T11:26:11.506Z,25.56
2023-10-15T11:27:11.481Z,25.54
2023-10-15T11:28:11.467Z,25.42
2023-10-15T11:29:11.502Z,25.42
2023-10-15T11:30:11.462Z,25.34
2023-10-15T11:31:11.556Z,25.39
2023-10-15T11:32:11.488Z,25.29
2023-10-15T11:33:11.507Z,25.27
2023-10-15T11:34:11.476Z,25.22
2023-10-15T11:35:11.543Z,25.15
2023-10-15T11:36:11.474Z,25.11
2023-10-15T11:37:11.456Z,25.01
2023-10-15T11:38:11.551Z,25.09
2023-10-15T11:39:11.487Z,25.05
2023-10-15T11:40:11.623Z,25.02
2023-10-15T11:41:11.486Z,24.93
2023-10-15T11:42:11.517Z,24.90
2023-10-15T11:43:11.452Z,24.87
2023-10-15T11:44:11.496Z,24.77
2023-10-15T11:45:11.457Z,24.69
2023-10-15T11:46:11.474Z,24.66
2023-10-15T11:47:11.593Z,24.70
2023-10-15T11:48:11.522Z,24.70
2023-10-15T11:49:11.444Z,24.59
2023-10-15T11:50:11.614Z,24.55
2023-10-15T11:51:11.439Z,24.49
2023-10-15T11:52:11.456Z,24.56
2023-10-15T11:53:11.577Z,24.59
2023-10-15T11:54:11.464Z,24.54
2023-10-15T11:55:11.453Z,24.54
2023-10-15T11:56:11.611Z,24.45
2023-10-15T11:57:11.449Z,24.52
2023-10-15T11:58:11.530Z,24.59
2023-10-15T11:59:11.497Z,24.59
2023-10-15T12:00:11.487Z,24.55
2023-10-15T12:01:11.489Z,24.61
2023-10-15T12:02:11.472Z,24.75
2023-10-15T12:03:11.507Z,24.96
2023-10-15T12:04:11.420Z,25.02
2023-10-15T12:05:11.479Z,25.05
2023-10-15T12:06:11.464Z,25.22
2023-10-15T12:07:11.430Z,25.22
2023-10-15T12:08:11.433Z,25.27
2023-10-15T12:09:11.411Z,25.38
2023-10-15T12:10:11.432Z,25.57
2023-10-15T12:11:11.457Z,25.78
2023-10-15T12:12:11.423Z,25.93
2023-10-15T12:13:11.427Z,26.12
2023-10-15T12:14:11.450Z,26.39
2023-10-15T12:15:11.444Z,26.56
2023-10-15T12:16:11.473Z,26.74
2023-10-15T12:17:11.467Z,26.94
2023-10-15T12:18:11.430Z,27.21
2023-10-15T12:19:11.421Z,27.38
2023-10-15T12:20:19.589Z,27.43
2023-10-15T12:21:11.429Z,27.72
2023-10-15T12:22:14.137Z,27.90
2023-10-15T12:23:11.459Z,28.06
2023-10-15T12:24:11.428Z,28.28
2023-10-15T12:25:11.476Z,28.43
2023-10-15T12:26:11.468Z,28.57
2023-10-15T12:27:11.424Z,28.61
2023-10-15T12:28:11.462Z,28.51
2023-10-15T12:29:20.353Z,28.73
2023-10-15T12:30:11.497Z,28.82
2023-10-15T12:31:11.630Z,28.90
2023-10-15T12:32:11.455Z,29.03
2023-10-15T12:33:11.447Z,29.18
2023-10-15T12:34:11.446Z,29.15
2023-10-15T12:35:11.450Z,29.43
2023-10-15T12:36:11.454Z,29.57
2023-10-15T12:37:11.463Z,29.73
2023-10-15T12:38:11.542Z,29.84
2023-10-15T12:39:11.462Z,30.04
2023-10-15T12:40:11.502Z,30.25
2023-10-15T12:41:11.498Z,30.40
2023-10-15T12:42:11.500Z,30.45
2023-10-15T12:43:11.471Z,30.64
2023-10-15T12:44:11.539Z,30.84
2023-10-15T12:45:11.507Z,30.88
2023-10-15T12:46:11.554Z,30.91
2023-10-15T12:47:11.592Z,31.15
2023-10-15T12:48:11.489Z,31.26
2023-10-15T12:49:11.494Z,31.38
2023-10-15T12:50:11.519Z,31.44
2023-10-15T12:51:11.525Z,31.63
2023-10-15T12:52:11.528Z,31.68
2023-10-15T12:53:11.564Z,31.86
2023-10-15T12:54:11.542Z,31.93
2023-10-15T12:55:11.515Z,32.03
2023-10-15T12:56:11.527Z,32.19
2023-10-15T12:57:11.545Z,32.23
2023-10-15T12:58:11.544Z,32.32
2023-10-15T12:59:11.582Z,32.28
2023-10-15T13:00:11.544Z,32.43
2023-10-15T13:01:11.594Z,32.57
2023-10-15T13:02:11.600Z,32.69
2023-10-15T13:03:11.620Z,32.72
2023-10-15T13:04:11.587Z,32.75
2023-10-15T13:05:11.698Z,32.84
2023-10-15T13:06:11.581Z,32.93
2023-10-15T13:07:11.601Z,33.06
2023-10-15T13:08:11.640Z,33.06
2023-10-15T13:09:11.600Z,33.13
2023-10-15T13:10:11.624Z,33.21
2023-10-15T13:11:11.620Z,33.28
2023-10-15T13:13:44.178Z,33.32
2023-10-15T13:14:44.147Z,33.39
2023-10-15T13:15:44.146Z,33.46
2023-10-15T13:16:44.200Z,33.48
2023-10-15T13:17:44.201Z,33.55
2023-10-15T13:18:44.158Z,33.46
2023-10-15T13:19:44.207Z,33.58
2023-10-15T13:20:44.210Z,33.66
2023-10-15T13:21:44.161Z,33.61
2023-10-15T13:22:44.263Z,33.77
2023-10-15T13:23:44.180Z,33.77
2023-10-15T13:24:44.264Z,33.85
2023-10-15T13:25:44.229Z,33.85
2023-10-15T13:26:44.212Z,33.89
2023-10-15T13:27:44.386Z,33.99
2023-10-15T13:28:44.233Z,34.02
2023-10-15T13:29:44.256Z,34.03
2023-10-15T13:30:44.235Z,34.10
2023-10-15T13:31:44.352Z,34.02
2023-10-15T13:32:44.297Z,34.15
2023-10-15T13:33:44.252Z,34.10
2023-10-15T13:34:44.280Z,34.06
2023-10-15T13:35:44.251Z,33.80
2023-10-15T13:36:44.291Z,33.46
2023-10-15T13:37:44.507Z,33.21
2023-10-15T13:38:44.300Z,33.01
2023-10-15T13:39:44.273Z,32.76
2023-10-15T13:40:44.341Z,32.57
2023-10-15T13:41:44.291Z,32.28
2023-10-15T13:42:44.300Z,32.25
2023-10-15T13:43:44.355Z,32.50
2023-10-15T13:44:44.299Z,32.37
2023-10-15T13:45:44.298Z,32.13
2023-10-15T13:46:44.458Z,31.82
2023-10-15T13:47:44.373Z,31.56
2023-10-15T13:48:44.349Z,31.38
2023-10-15T13:49:44.506Z,31.28
2023-10-15T13:50:44.336Z,31.06
2023-10-15T13:51:44.333Z,31.00
2023-10-15T13:52:44.377Z,31.03
2023-10-15T13:53:44.336Z,30.85
2023-10-15T13:54:44.352Z,30.66
2023-10-15T13:55:44.421Z,30.54
2023-10-15T13:56:44.335Z,30.29
2023-10-15T13:57:44.390Z,30.11
2023-10-15T13:58:44.368Z,30.09
2023-10-15T13:59:44.388Z,30.11
2023-10-15T14:00:44.353Z,30.32
2023-10-15T14:01:44.433Z,30.32
2023-10-15T14:02:44.496Z,30.31
2023-10-15T14:03:44.532Z,30.02
2023-10-15T14:04:44.531Z,29.91
2023-10-15T14:05:44.623Z,30.03
2023-10-15T14:06:44.389Z,30.14
2023-10-15T14:07:44.420Z,30.25
2023-10-15T14:08:44.393Z,30.39
2023-10-15T14:09:44.377Z,30.45
2023-10-15T14:10:44.394Z,30.51
2023-10-15T14:11:44.382Z,30.56
2023-10-15T14:12:44.383Z,30.59
2023-10-15T14:13:44.425Z,30.63
2023-10-15T14:14:44.381Z,30.67
2023-10-15T14:15:44.405Z,30.67
2023-10-15T14:16:44.460Z,30.66
2023-10-15T14:17:44.517Z,30.78
2023-10-15T14:18:44.409Z,30.77
2023-10-15T14:19:44.426Z,30.75
2023-10-15T14:20:44.430Z,30.77
2023-10-15T14:21:45.076Z,30.66
2023-10-15T14:22:44.445Z,30.78
2023-10-15T14:23:44.422Z,30.62
2023-10-15T14:24:44.421Z,30.70
2023-10-15T14:25:44.477Z,30.64
2023-10-15T14:26:44.441Z,30.59
2023-10-15T14:27:44.581Z,30.57
2023-10-15T14:28:44.464Z,30.48
2023-10-15T14:29:44.451Z,30.35
2023-10-15T14:30:44.440Z,30.32
2023-10-15T14:31:44.551Z,30.18
2023-10-15T14:32:44.549Z,30.10
2023-10-15T14:33:44.453Z,30.11
2023-10-15T14:34:44.521Z,29.95
2023-10-15T14:35:44.463Z,29.82
2023-10-15T14:36:44.468Z,29.67
2023-10-15T14:37:44.529Z,29.63
2023-10-15T14:38:44.468Z,29.48
2023-10-15T14:39:44.486Z,29.47
2023-10-15T14:40:44.539Z,29.21
2023-10-15T14:41:44.508Z,29.10
2023-10-15T14:42:44.466Z,28.92
2023-10-15T14:43:44.569Z,28.86
2023-10-15T14:44:44.478Z,28.67
2023-10-15T14:45:44.530Z,28.64
2023-10-15T14:46:44.513Z,28.53
2023-10-15T14:47:44.538Z,28.45
2023-10-15T14:48:45.513Z,28.38
2023-10-15T14:49:44.566Z,28.33
2023-10-15T14:50:44.502Z,28.14
2023-10-15T14:51:44.523Z,27.96
2023-10-15T14:52:44.524Z,27.93
2023-10-15T14:53:44.494Z,27.89
2023-10-15T14:54:44.501Z,27.76
2023-10-15T14:55:45.403Z,27.66
2023-10-15T14:56:44.518Z,27.65
2023-10-15T14:57:44.509Z,27.53
2023-10-15T14:58:44.577Z,27.46
2023-10-15T14:59:45.520Z,27.31
2023-10-15T15:00:44.546Z,27.30
2023-10-15T15:01:44.646Z,27.26
2023-10-15T15:02:44.772Z,27.09
2023-10-15T15:03:44.531Z,26.97
2023-10-15T15:04:44.538Z,27.00
2023-10-15T15:05:44.526Z,26.91
2023-10-15T15:06:44.521Z,26.74
2023-10-15T15:07:44.621Z,26.60
2023-10-15T15:08:44.519Z,26.59
2023-10-15T15:09:45.251Z,26.56
2023-10-15T15:10:44.584Z,26.44
2023-10-15T15:11:44.527Z,26.39
2023-10-15T15:12:44.540Z,26.35
2023-10-15T15:13:44.535Z,26.32
2023-10-15T15:14:44.528Z,26.22
2023-10-15T15:15:44.548Z,26.15
2023-10-15T15:16:44.584Z,26.16
2023-10-15T15:17:44.665Z,26.07
2023-10-15T15:18:44.538Z,25.99
2023-10-15T15:19:44.555Z,25.91
2023-10-15T15:20:44.522Z,25.89
2023-10-15T15:21:44.517Z,25.82
2023-10-15T15:22:44.609Z,25.81
2023-10-15T15:23:44.526Z,25.79
2023-10-15T15:24:44.534Z,25.69
2023-10-15T15:25:44.630Z,25.66
2023-10-15T15:26:44.522Z,25.63
2023-10-15T15:27:44.538Z,25.45
2023-10-15T15:28:44.543Z,25.44
2023-10-15T15:29:44.557Z,25.42
2023-10-15T15:30:44.519Z,25.37
2023-10-15T15:31:44.577Z,25.34
2023-10-15T15:32:44.642Z,25.23
2023-10-15T15:33:44.571Z,25.14
2023-10-15T15:34:44.593Z,25.09
2023-10-15T15:35:44.521Z,25.04
2023-10-15T15:37:44.615Z,24.97
2023-10-15T15:38:44.513Z,24.96
2023-10-15T15:39:44.511Z,24.94
2023-10-15T15:40:44.578Z,24.89
2023-10-15T15:41:44.507Z,24.83
2023-10-15T15:42:44.529Z,24.77
2023-10-15T15:43:44.530Z,24.71
2023-10-15T15:44:44.513Z,24.70
2023-10-15T15:45:44.551Z,24.61
2023-10-15T15:51:14.500Z,24.37
2023-10-15T15:52:14.458Z,24.32
2023-10-15T15:53:14.518Z,24.27
2023-10-15T15:54:14.446Z,24.24
2023-10-15T15:55:14.456Z,24.21
2023-10-15T15:56:14.603Z,24.22
2023-10-15T15:57:14.445Z,24.15
2023-10-15T15:58:14.461Z,24.12
2023-10-15T15:59:14.464Z,24.09
2023-10-15T16:00:14.435Z,24.09
2023-10-15T16:01:17.930Z,24.09
2023-10-15T16:02:14.496Z,23.99
2023-10-15T16:03:14.767Z,23.97
2023-10-15T16:04:14.613Z,24.00
2023-10-15T16:05:14.541Z,23.90
2023-10-15T16:06:14.423Z,23.89
2023-10-15T16:07:14.435Z,23.99
2023-10-15T16:08:14.458Z,23.81
2023-10-15T16:09:14.418Z,23.81
2023-10-15T16:10:14.431Z,23.82
2023-10-15T16:11:14.456Z,23.78
2023-10-15T16:12:14.412Z,23.75
2023-10-15T16:13:14.418Z,23.72
2023-10-15T16:14:14.465Z,23.72
2023-10-15T16:15:14.425Z,23.60
2023-10-15T16:16:14.440Z,23.67
2023-10-15T16:17:14.446Z,23.55
2023-10-15T16:29:20.803Z,23.26
2023-10-15T16:30:20.710Z,23.15
2023-10-15T16:31:20.699Z,23.16
2023-10-15T16:32:20.762Z,23.09
2023-10-15T16:33:20.679Z,23.07
2023-10-15T16:34:22.109Z,23.06
2023-10-15T16:35:20.757Z,23.00
2023-10-15T16:36:20.645Z,23.03
2023-10-15T16:37:20.644Z,23.06
2023-10-15T16:38:20.717Z,23.00
2023-10-15T16:39:20.634Z,22.94
2023-10-15T16:40:20.630Z,22.97
2023-10-15T16:41:20.664Z,22.99
2023-10-15T16:42:20.627Z,22.85
2023-10-15T16:43:20.631Z,22.89
2023-10-15T16:44:20.749Z,22.85
2023-10-15T16:45:20.691Z,22.89
2023-10-15T16:46:20.751Z,22.85
2023-10-15T16:47:20.663Z,22.78
2023-10-15T16:48:20.641Z,22.71
2023-10-15T16:49:20.624Z,22.84
2023-10-15T16:50:20.624Z,22.71
2023-10-15T16:51:26.032Z,22.66
2023-10-15T16:52:20.591Z,22.71
2023-10-15T16:53:20.785Z,22.76
2023-10-15T16:54:20.601Z,22.76
2023-10-15T16:55:20.582Z,22.73
2023-10-15T16:56:20.622Z,22.71
2023-10-15T16:57:20.570Z,22.57
2023-10-15T16:58:20.585Z,22.57
2023-10-15T16:59:20.633Z,22.63
2023-10-15T17:00:20.585Z,22.59
2023-10-15T17:01:20.598Z,22.61
2023-10-15T17:02:20.597Z,22.64
2023-10-15T17:03:20.565Z,22.64
2023-10-15T17:04:20.798Z,22.55
2023-10-15T17:05:20.585Z,22.63
2023-10-15T17:06:20.556Z,22.51
2023-10-15T17:07:20.548Z,22.55
2023-10-15T17:08:20.542Z,22.60
2023-10-15T17:09:20.583Z,22.60
2023-10-15T17:10:20.556Z,22.48
2023-10-15T17:11:20.536Z,22.49
2023-10-15T17:12:20.570Z,22.45
2023-10-15T17:13:20.532Z,22.51
2023-10-15T17:14:20.570Z,22.48
2023-10-15T17:15:20.651Z,22.49
2023-10-15T17:16:20.551Z,22.46
2023-10-15T17:17:20.546Z,22.51
2023-10-15T17:18:20.549Z,22.46
2023-10-15T17:19:20.523Z,22.46
2023-10-15T17:20:20.529Z,22.48
2023-10-15T17:21:20.548Z,22.44
2023-10-15T17:22:20.523Z,22.41
2023-10-15T17:23:20.523Z,22.45
2023-10-15T17:24:20.543Z,22.33
2023-10-15T17:25:20.515Z,22.34
2023-10-15T17:26:20.509Z,22.42
2023-10-15T17:27:20.517Z,22.38
2023-10-15T17:28:20.479Z,22.42
2023-10-15T17:29:20.488Z,22.33
2023-10-15T17:30:20.533Z,22.34
2023-10-15T17:31:20.578Z,22.34
2023-10-15T17:32:20.476Z,22.36
2023-10-15T17:33:20.536Z,22.34
2023-10-15T17:34:20.474Z,22.34
2023-10-15T17:35:20.460Z,22.34
2023-10-15T17:36:20.612Z,22.36
2023-10-15T17:37:21.081Z,22.27
2023-10-15T17:38:20.477Z,22.27
2023-10-15T17:39:20.462Z,22.24
2023-10-15T17:40:20.452Z,22.27